createdAt,value
2019-04-01T00:01:24.579Z,2.40
2019-04-01T00:03:51.971Z,2.30
2019-04-01T00:06:19.274Z,1.90
2019-04-01T00:08:46.575Z,2.27
2019-04-01T00:11:14.096Z,1.87
2019-04-01T00:13:41.580Z,1.73
2019-04-01T00:16:09.143Z,1.83
2019-04-01T00:18:36.723Z,2.17
2019-04-01T00:21:04.132Z,3.17
2019-04-01T00:23:31.512Z,1.97
2019-04-01T00:25:58.856Z,1.83
2019-04-01T00:28:26.161Z,1.93
2019-04-01T00:30:53.801Z,2.07
2019-04-01T00:33:21.336Z,1.97
2019-04-01T00:35:48.765Z,1.90
2019-04-01T00:38:16.440Z,2.13
2019-04-01T00:40:43.878Z,2.10
2019-04-01T00:43:45.690Z,1.67
2019-04-01T00:46:15.261Z,2.10
2019-04-01T00:48:43.240Z,2.17
2019-04-01T00:51:10.635Z,2.43
2019-04-01T00:53:38.017Z,1.80
2019-04-01T00:56:05.629Z,2.50
2019-04-01T00:58:33.041Z,1.80
2019-04-01T01:01:00.680Z,1.97
2019-04-01T01:03:28.087Z,3.17
2019-04-01T01:05:55.791Z,1.90
2019-04-01T01:08:23.366Z,2.70
2019-04-01T01:10:50.686Z,2.03
2019-04-01T01:13:18.361Z,2.53
2019-04-01T01:15:45.652Z,2.40
2019-04-01T01:18:13.085Z,1.57
2019-04-01T01:20:40.618Z,1.60
2019-04-01T01:23:07.961Z,1.90
2019-04-01T01:25:35.425Z,2.07
2019-04-01T01:28:02.748Z,1.97
2019-04-01T01:30:30.343Z,2.47
2019-04-01T01:32:57.753Z,1.80
2019-04-01T01:35:25.076Z,1.70
2019-04-01T01:37:52.407Z,1.70
2019-04-01T01:40:19.814Z,2.37
2019-04-01T01:42:47.405Z,2.03
2019-04-01T01:45:15.028Z,1.83
2019-04-01T01:47:42.518Z,1.70
2019-04-01T01:50:09.819Z,2.07
2019-04-01T01:52:37.166Z,1.80
2019-04-01T01:55:04.590Z,1.80
2019-04-01T01:57:32.279Z,2.20
2019-04-01T01:59:59.846Z,1.83
2019-04-01T02:02:27.156Z,1.80
2019-04-01T02:04:54.845Z,1.97
2019-04-01T02:07:22.446Z,1.37
2019-04-01T02:09:49.865Z,1.73
2019-04-01T02:12:17.182Z,1.90
2019-04-01T02:14:45.085Z,1.80
2019-04-01T02:17:12.402Z,1.93
2019-04-01T02:19:39.816Z,1.80
2019-04-01T02:22:07.187Z,1.47
2019-04-01T02:24:35.119Z,1.80
2019-04-01T02:27:02.516Z,1.70
2019-04-01T02:29:30.077Z,2.03
2019-04-01T02:31:57.389Z,1.40
2019-04-01T02:34:24.868Z,2.03
2019-04-01T02:36:52.263Z,1.80
2019-04-01T02:39:19.601Z,2.00
2019-04-01T02:41:47.317Z,1.97
2019-04-01T02:44:14.995Z,1.97
2019-04-01T02:46:42.454Z,2.93
2019-04-01T02:49:09.842Z,1.60
2019-04-01T02:51:37.169Z,1.57
2019-04-01T02:54:04.856Z,1.77
2019-04-01T02:56:32.265Z,1.73
2019-04-01T02:58:59.661Z,1.70
2019-04-01T03:01:26.987Z,1.60
2019-04-01T03:03:54.372Z,3.20
2019-04-01T03:06:22.050Z,1.50
2019-04-01T03:08:49.425Z,1.43
2019-04-01T03:11:16.823Z,1.80
2019-04-01T03:13:44.246Z,1.37
2019-04-01T03:16:11.547Z,2.07
2019-04-01T03:18:39.212Z,1.70
2019-04-01T03:21:06.879Z,1.20
2019-04-01T03:23:34.448Z,1.47
2019-04-01T03:26:01.862Z,1.30
2019-04-01T03:28:29.274Z,1.83
2019-04-01T03:30:56.649Z,1.67
2019-04-01T03:33:24.342Z,1.23
2019-04-01T03:35:51.740Z,1.83
2019-04-01T03:38:19.164Z,1.80
2019-04-01T03:40:46.545Z,2.10
2019-04-01T03:43:14.348Z,1.30
2019-04-01T03:45:41.849Z,1.60
2019-04-01T03:48:09.148Z,1.80
2019-04-01T03:50:36.583Z,1.60
2019-04-01T03:53:04.031Z,1.37
2019-04-01T03:55:31.692Z,1.63
2019-04-01T03:57:59.179Z,1.63
2019-04-01T04:00:26.574Z,1.57
2019-04-01T04:02:53.995Z,1.07
2019-04-01T04:05:21.445Z,1.30
2019-04-01T04:07:49.201Z,1.50
2019-04-01T04:10:16.578Z,1.30
2019-04-01T04:12:43.900Z,1.50
2019-04-01T04:15:11.520Z,1.70
2019-04-01T04:17:39.198Z,1.70
2019-04-01T04:20:06.929Z,1.43
2019-04-01T04:22:34.432Z,1.40
2019-04-01T04:25:01.867Z,1.40
2019-04-01T04:27:29.659Z,1.40
2019-04-01T04:29:57.315Z,1.27
2019-04-01T04:32:24.647Z,1.37
2019-04-01T04:34:56.908Z,1.77
2019-04-01T04:37:21.535Z,1.63
2019-04-01T04:39:48.895Z,1.40
2019-04-01T04:42:16.215Z,1.30
2019-04-01T04:44:44.024Z,1.27
2019-04-01T04:47:11.983Z,1.70
2019-04-01T04:49:39.487Z,1.57
2019-04-01T04:52:06.902Z,1.50
2019-04-01T04:54:34.318Z,1.70
2019-04-01T04:57:01.651Z,1.37
2019-04-01T04:59:29.047Z,1.33
2019-04-01T05:01:56.614Z,1.80
2019-04-01T05:04:23.948Z,1.70
2019-04-01T05:06:51.654Z,1.70
2019-04-01T05:09:19.067Z,1.43
2019-04-01T05:11:46.400Z,1.37
2019-04-01T05:14:13.786Z,1.27
2019-04-01T05:16:41.235Z,1.40
2019-04-01T05:19:08.984Z,1.57
2019-04-01T05:21:36.659Z,1.13
2019-04-01T05:24:04.018Z,1.50
2019-04-01T05:26:32.478Z,2.47
2019-04-01T05:29:01.261Z,1.77
2019-04-01T05:31:31.814Z,1.50
2019-04-01T05:34:00.957Z,1.80
2019-04-01T05:36:28.520Z,1.50
2019-04-01T05:38:56.418Z,1.70
2019-04-01T05:41:23.771Z,2.10
2019-04-01T05:43:51.559Z,1.30
2019-04-01T05:46:18.862Z,1.30
2019-04-01T05:48:46.289Z,2.00
2019-04-01T05:51:13.587Z,1.80
2019-04-01T05:53:41.031Z,1.60
2019-04-01T05:56:08.867Z,1.70
2019-04-01T05:58:36.210Z,1.80
2019-04-01T06:01:10.385Z,1.50
2019-04-01T06:03:38.052Z,1.73
2019-04-01T06:06:05.924Z,1.90
2019-04-01T06:08:33.209Z,1.60
2019-04-01T06:11:00.552Z,1.77
2019-04-01T06:13:28.161Z,1.60
2019-04-01T06:15:56.734Z,2.33
2019-04-01T06:18:24.142Z,1.67
2019-04-01T06:20:52.027Z,1.60
2019-04-01T06:23:19.438Z,1.30
2019-04-01T06:25:46.840Z,1.90
2019-04-01T06:28:14.361Z,2.20
2019-04-01T06:30:41.793Z,4.60
2019-04-01T06:33:09.211Z,1.93
2019-04-01T06:35:36.712Z,2.10
2019-04-01T06:38:04.071Z,1.60
2019-04-01T06:40:31.374Z,1.70
2019-04-01T06:42:58.838Z,1.63
2019-04-01T06:45:26.430Z,1.77
2019-04-01T06:47:53.853Z,1.80
2019-04-01T06:50:21.336Z,1.77
2019-04-01T06:52:48.659Z,2.37
2019-04-01T06:55:16.067Z,1.80
2019-04-01T06:57:43.422Z,1.87
2019-04-01T07:00:11.457Z,1.93
2019-04-01T07:02:38.905Z,2.57
2019-04-01T07:05:07.093Z,1.97
2019-04-01T07:07:34.774Z,2.63
2019-04-01T07:10:02.640Z,2.07
2019-04-01T07:12:30.019Z,2.13
2019-04-01T07:14:57.487Z,1.90
2019-04-01T07:17:24.966Z,2.30
2019-04-01T07:19:52.351Z,2.70
2019-04-01T07:22:20.072Z,2.63
2019-04-01T07:24:47.401Z,2.80
2019-04-01T07:27:15.042Z,2.70
2019-04-01T07:29:42.446Z,2.67
2019-04-01T07:32:14.734Z,2.60
2019-04-01T07:34:42.178Z,2.30
2019-04-01T07:37:10.990Z,3.17
2019-04-01T07:39:38.565Z,3.23
2019-04-01T07:42:05.970Z,3.03
2019-04-01T07:44:33.263Z,2.47
2019-04-01T07:47:05.564Z,3.17
2019-04-01T07:49:33.225Z,3.43
2019-04-01T07:52:00.563Z,2.50
2019-04-01T07:54:28.243Z,2.87
2019-04-01T07:56:55.733Z,3.17
2019-04-01T07:59:23.054Z,3.03
2019-04-01T08:01:52.823Z,3.20
2019-04-01T08:04:23.699Z,3.10
2019-04-01T08:06:53.682Z,2.53
2019-04-01T08:09:21.216Z,2.73
2019-04-01T08:11:50.204Z,2.83
2019-04-01T08:14:17.904Z,2.90
2019-04-01T08:16:45.249Z,2.90
2019-04-01T08:19:12.756Z,4.03
2019-04-01T08:21:40.311Z,3.30
2019-04-01T08:24:07.723Z,3.63
2019-04-01T08:26:35.091Z,3.90
2019-04-01T08:29:02.696Z,3.93
2019-04-01T08:31:30.372Z,3.50
2019-04-01T08:33:57.851Z,3.20
2019-04-01T08:36:25.267Z,4.00
2019-04-01T08:38:55.471Z,3.67
2019-04-01T08:41:22.601Z,3.97
2019-04-01T08:43:50.151Z,2.80
2019-04-01T08:46:17.670Z,3.20
2019-04-01T08:48:45.080Z,3.70
2019-04-01T08:51:12.503Z,4.13
2019-04-01T08:53:39.965Z,32.67
2019-04-01T08:56:07.366Z,3.60
2019-04-01T08:58:36.584Z,3.70
2019-04-01T09:01:04.289Z,3.70
2019-04-01T09:03:33.085Z,3.60
2019-04-01T09:06:00.623Z,4.10
2019-04-01T09:08:28.875Z,3.70
2019-04-01T09:10:56.994Z,3.77
2019-04-01T09:13:24.842Z,3.63
2019-04-01T09:15:52.267Z,4.07
2019-04-01T09:18:19.909Z,4.47
2019-04-01T09:20:47.511Z,3.97
2019-04-01T09:23:15.114Z,3.93
2019-04-01T09:25:42.493Z,3.80
2019-04-01T09:28:10.088Z,3.93
2019-04-01T09:30:37.485Z,3.90
2019-04-01T09:33:04.907Z,4.07
2019-04-01T09:35:32.612Z,4.20
2019-04-01T09:38:00.033Z,4.90
2019-04-01T09:40:27.397Z,4.57
2019-04-01T09:42:54.839Z,5.10
2019-04-01T09:45:22.540Z,4.10
2019-04-01T09:47:49.987Z,4.33
2019-04-01T09:50:17.950Z,4.97
2019-04-01T09:52:45.305Z,6.43
2019-04-01T09:55:13.150Z,5.20
2019-04-01T09:57:40.555Z,6.03
2019-04-01T10:00:10.359Z,5.73
2019-04-01T10:02:37.802Z,4.87
2019-04-01T10:05:05.497Z,5.40
2019-04-01T10:07:33.072Z,4.87
2019-04-01T10:10:00.445Z,5.77
2019-04-01T10:12:27.729Z,5.27
2019-04-01T10:14:55.114Z,6.13
2019-04-01T10:17:24.958Z,5.87
2019-04-01T10:19:52.344Z,5.70
2019-04-01T10:22:19.937Z,5.83
2019-04-01T10:24:47.529Z,6.20
2019-04-01T10:27:14.948Z,6.63
2019-04-01T10:29:42.463Z,6.03
2019-04-01T10:32:09.893Z,6.10
2019-04-01T10:34:37.504Z,6.87
2019-04-01T10:37:04.926Z,6.83
2019-04-01T10:39:32.662Z,7.20
2019-04-01T10:41:59.989Z,6.85
2019-04-01T10:44:27.652Z,6.92
2019-04-01T10:46:55.088Z,7.12
2019-04-01T10:49:22.551Z,7.45
2019-04-01T10:51:50.614Z,6.80
2019-04-01T10:54:18.004Z,7.40
2019-04-01T10:56:45.456Z,7.83
2019-04-01T10:59:13.475Z,7.60
2019-04-01T11:01:40.825Z,7.47
2019-04-01T11:04:08.273Z,7.85
2019-04-01T11:06:35.681Z,7.67
2019-04-01T11:09:05.167Z,8.25
2019-04-01T11:11:32.755Z,7.78
2019-04-01T11:14:00.437Z,7.55
2019-04-01T11:16:31.474Z,7.95
2019-04-01T11:18:58.212Z,7.62
2019-04-01T11:21:26.012Z,8.03
2019-04-01T11:23:53.428Z,8.23
2019-04-01T11:26:20.822Z,8.35
2019-04-01T11:28:48.143Z,8.45
2019-04-01T11:31:15.433Z,7.92
2019-04-01T11:33:43.125Z,8.10
2019-04-01T11:36:10.570Z,8.15
2019-04-01T11:38:37.929Z,7.92
2019-04-01T11:41:05.636Z,7.83
2019-04-01T11:43:35.471Z,8.58
2019-04-01T11:46:02.573Z,8.00
2019-04-01T11:48:33.858Z,8.03
2019-04-01T11:51:01.624Z,9.28
2019-04-01T11:53:28.976Z,8.10
2019-04-01T11:55:56.332Z,8.50
2019-04-01T11:58:23.714Z,8.13
2019-04-01T12:00:51.019Z,8.05
2019-04-01T12:03:19.076Z,8.58
2019-04-01T12:05:47.267Z,8.53
2019-04-01T12:08:14.691Z,8.58
2019-04-01T12:10:42.093Z,8.95
2019-04-01T12:13:09.425Z,8.38
2019-04-01T12:15:36.758Z,9.13
2019-04-01T12:18:04.496Z,9.58
2019-04-01T12:20:31.806Z,8.40
2019-04-01T12:22:59.256Z,8.33
2019-04-01T12:25:26.659Z,8.50
2019-04-01T12:27:54.052Z,9.35
2019-04-01T12:30:21.504Z,9.50
2019-04-01T12:32:49.750Z,8.88
2019-04-01T12:35:17.325Z,9.48
2019-04-01T12:37:45.785Z,10.10
2019-04-01T12:40:13.566Z,9.73
2019-04-01T12:42:41.143Z,9.68
2019-04-01T12:45:08.589Z,9.90
2019-04-01T12:47:35.963Z,9.18
2019-04-01T12:50:04.576Z,9.78
2019-04-01T12:52:32.197Z,10.38
2019-04-01T12:55:01.039Z,10.13
2019-04-01T12:57:28.581Z,10.10
2019-04-01T12:59:55.906Z,9.55
2019-04-01T13:02:23.363Z,10.75
2019-04-01T13:04:51.449Z,9.68
2019-04-01T13:07:19.902Z,10.88
2019-04-01T13:09:48.173Z,9.15
2019-04-01T13:12:15.588Z,10.30
2019-04-01T13:14:43.496Z,10.43
2019-04-01T13:17:11.462Z,9.88
2019-04-01T13:19:38.864Z,10.23
2019-04-01T13:22:06.193Z,10.43
2019-04-01T13:24:33.502Z,10.30
2019-04-01T13:27:01.545Z,11.28
2019-04-01T13:29:29.109Z,10.95
2019-04-01T13:31:56.426Z,10.68
2019-04-01T13:34:24.122Z,10.75
2019-04-01T13:36:51.518Z,11.55
2019-04-01T13:39:18.844Z,10.82
2019-04-01T13:41:46.145Z,11.10
2019-04-01T13:44:13.757Z,11.12
2019-04-01T13:46:41.059Z,11.12
2019-04-01T13:49:08.765Z,11.70
2019-04-01T13:51:36.157Z,11.38
2019-04-01T13:54:08.891Z,11.30
2019-04-01T13:56:33.060Z,10.95
2019-04-01T13:59:00.733Z,11.50
2019-04-01T14:01:28.059Z,11.75
2019-04-01T14:03:55.744Z,11.15
2019-04-01T14:06:23.338Z,11.10
2019-04-01T14:08:51.304Z,11.15
2019-04-01T14:11:18.881Z,11.22
2019-04-01T14:13:46.457Z,11.57
2019-04-01T14:16:13.792Z,12.10
2019-04-01T14:18:41.199Z,12.78
2019-04-01T14:21:16.423Z,12.25
2019-04-01T14:23:38.578Z,11.75
2019-04-01T14:26:05.938Z,13.10
2019-04-01T14:28:33.555Z,12.30
2019-04-01T14:31:00.861Z,12.93
2019-04-01T14:33:28.309Z,13.13
2019-04-01T14:35:55.617Z,13.20
2019-04-01T14:38:23.359Z,12.15
2019-04-01T14:40:51.046Z,12.88
2019-04-01T14:43:18.465Z,12.00
2019-04-01T14:45:46.135Z,12.95
2019-04-01T14:48:13.451Z,13.40
2019-04-01T14:50:41.091Z,12.10
2019-04-01T14:53:10.066Z,13.98
2019-04-01T14:55:37.738Z,12.68
2019-04-01T14:58:05.175Z,13.58
2019-04-01T15:00:32.732Z,12.88
2019-04-01T15:03:00.171Z,12.28
2019-04-01T15:05:27.577Z,12.40
2019-04-01T15:07:55.034Z,12.33
2019-04-01T15:10:22.469Z,11.68
2019-04-01T15:13:04.000Z,12.07
2019-04-01T15:15:19.404Z,12.37
2019-04-01T15:17:47.279Z,12.68
2019-04-01T15:20:17.014Z,12.30
2019-04-01T15:22:44.469Z,13.13
2019-04-01T15:25:11.912Z,11.10
2019-04-01T15:27:39.568Z,11.65
2019-04-01T15:30:07.409Z,11.60
2019-04-01T15:32:34.818Z,11.70
2019-04-01T15:35:02.135Z,12.28
2019-04-01T15:37:32.195Z,11.13
2019-04-01T15:39:59.275Z,10.97
2019-04-01T15:42:26.921Z,11.93
2019-04-01T15:44:54.600Z,10.67
2019-04-01T15:47:22.021Z,11.50
2019-04-01T15:49:49.649Z,11.10
2019-04-01T15:52:17.075Z,11.07
2019-04-01T15:54:44.504Z,12.30
2019-04-01T15:57:15.104Z,10.67
2019-04-01T15:59:41.608Z,11.23
2019-04-01T16:02:08.988Z,11.40
2019-04-01T16:04:37.216Z,11.73
2019-04-01T16:07:04.807Z,11.17
2019-04-01T16:09:32.255Z,11.35
2019-04-01T16:12:00.248Z,11.15
2019-04-01T16:14:27.589Z,11.22
2019-04-01T16:16:55.054Z,11.18
2019-04-01T16:19:23.477Z,11.15
2019-04-01T16:21:51.102Z,10.28
2019-04-01T16:24:18.778Z,10.45
2019-04-01T16:26:46.789Z,11.35
2019-04-01T16:29:14.637Z,10.78
2019-04-01T16:31:42.024Z,11.38
2019-04-01T16:34:09.479Z,10.78
2019-04-01T16:36:36.960Z,11.00
2019-04-01T16:39:06.669Z,11.35
2019-04-01T16:41:34.574Z,11.65
2019-04-01T16:44:02.206Z,11.43
2019-04-01T16:46:29.671Z,10.50
2019-04-01T16:48:57.096Z,10.37
2019-04-01T16:51:24.717Z,10.37
2019-04-01T16:53:55.837Z,10.77
2019-04-01T16:56:21.610Z,10.40
2019-04-01T16:58:49.022Z,10.70
2019-04-01T17:01:16.404Z,11.20
2019-04-01T17:03:43.886Z,10.20
2019-04-01T17:06:11.283Z,10.70
2019-04-01T17:08:42.138Z,10.27
2019-04-01T17:11:09.833Z,9.47
2019-04-01T17:13:37.233Z,9.60
2019-04-01T17:16:04.900Z,9.33
2019-04-01T17:18:33.017Z,10.30
2019-04-01T17:21:00.541Z,9.50
2019-04-01T17:23:28.512Z,9.70
2019-04-01T17:25:56.464Z,9.67
2019-04-01T17:28:23.848Z,9.30
2019-04-01T17:30:51.442Z,10.20
2019-04-01T17:33:19.224Z,9.47
2019-04-01T17:35:46.757Z,10.33
2019-04-01T17:38:14.256Z,9.63
2019-04-01T17:40:41.922Z,10.80
2019-04-01T17:43:09.773Z,11.30
2019-04-01T17:45:38.354Z,11.40
2019-04-01T17:48:06.754Z,11.07
2019-04-01T17:50:34.947Z,11.40
2019-04-01T17:53:04.161Z,11.97
2019-04-01T17:55:32.136Z,12.43
2019-04-01T17:57:59.673Z,12.70
2019-04-01T18:00:27.700Z,11.73
2019-04-01T18:02:55.532Z,13.37
2019-04-01T18:05:23.548Z,10.63
2019-04-01T18:07:51.083Z,10.17
2019-04-01T18:10:19.014Z,11.30
2019-04-01T18:12:46.651Z,10.27
2019-04-01T18:15:14.159Z,10.17
2019-04-01T18:17:41.854Z,9.77
2019-04-01T18:20:10.272Z,10.63
2019-04-01T18:22:37.853Z,9.87
2019-04-01T18:25:05.612Z,9.93
2019-04-01T18:27:33.089Z,10.70
2019-04-01T18:30:00.855Z,11.03
2019-04-01T18:32:28.345Z,11.77
2019-04-01T18:34:56.301Z,12.50
2019-04-01T18:37:24.261Z,12.27
2019-04-01T18:39:57.141Z,13.67
2019-04-01T18:42:26.798Z,14.20
2019-04-01T18:44:55.203Z,13.87
2019-04-01T18:47:22.658Z,13.80
2019-04-01T18:49:50.797Z,14.03
2019-04-01T18:52:18.650Z,13.93
2019-04-01T18:54:46.478Z,15.00
2019-04-01T18:57:14.200Z,14.83
2019-04-01T18:59:42.049Z,16.70
2019-04-01T19:02:09.638Z,16.00
2019-04-01T19:04:37.147Z,14.43
2019-04-01T19:07:04.879Z,14.03
2019-04-01T19:09:32.799Z,14.40
2019-04-01T19:12:04.195Z,12.77
2019-04-01T19:14:29.656Z,13.63
2019-04-01T19:16:57.368Z,12.60
2019-04-01T19:19:25.171Z,13.43
2019-04-01T19:21:53.085Z,13.47
2019-04-01T19:24:20.983Z,12.37
2019-04-01T19:26:50.179Z,13.03
2019-04-01T19:29:17.598Z,12.07
2019-04-01T19:31:44.964Z,13.00
2019-04-01T19:34:12.295Z,11.57
2019-04-01T19:36:39.985Z,11.53
2019-04-01T19:39:07.695Z,11.87
2019-04-01T19:41:35.407Z,11.70
2019-04-01T19:44:02.865Z,10.87
2019-04-01T19:46:30.629Z,12.00
2019-04-01T19:48:58.304Z,11.87
2019-04-01T19:51:25.998Z,11.90
2019-04-01T19:53:53.579Z,11.53
2019-04-01T19:56:21.270Z,11.87
2019-04-01T19:58:48.704Z,12.53
2019-04-01T20:01:16.108Z,12.57
2019-04-01T20:03:43.913Z,12.33
2019-04-01T20:06:11.379Z,12.83
2019-04-01T20:08:39.075Z,12.57
2019-04-01T20:11:06.806Z,12.67
2019-04-01T20:13:34.138Z,11.43
2019-04-01T20:16:01.604Z,13.43
2019-04-01T20:18:29.017Z,13.20
2019-04-01T20:20:56.480Z,12.50
2019-04-01T20:23:23.928Z,12.40
2019-04-01T20:25:51.513Z,12.43
2019-04-01T20:28:18.813Z,11.70
2019-04-01T20:30:46.415Z,11.90
2019-04-01T20:33:18.148Z,11.53
2019-04-01T20:35:43.805Z,11.57
2019-04-01T20:38:12.462Z,11.93
2019-04-01T20:40:39.917Z,12.60
2019-04-01T20:43:07.615Z,11.50
2019-04-01T20:45:34.970Z,11.73
2019-04-01T20:48:03.360Z,12.47
2019-04-01T20:50:32.027Z,10.67
2019-04-01T20:52:59.755Z,12.17
2019-04-01T20:55:27.210Z,12.27
2019-04-01T20:57:54.717Z,12.73
2019-04-01T21:00:22.259Z,11.97
2019-04-01T21:02:50.069Z,12.97
2019-04-01T21:05:18.281Z,12.43
2019-04-01T21:07:47.091Z,12.60
2019-04-01T21:10:14.930Z,12.00
2019-04-01T21:12:42.463Z,11.67
2019-04-01T21:15:10.813Z,13.37
2019-04-01T21:17:38.511Z,12.67
2019-04-01T21:20:10.809Z,11.97
2019-04-01T21:22:38.214Z,12.27
2019-04-01T21:25:06.036Z,11.77
2019-04-01T21:27:33.888Z,12.23
2019-04-01T21:30:01.591Z,11.50
2019-04-01T21:32:29.135Z,12.63
2019-04-01T21:34:58.172Z,11.60
2019-04-01T21:37:25.763Z,11.97
2019-04-01T21:39:53.528Z,11.93
2019-04-01T21:42:22.117Z,11.30
2019-04-01T21:44:49.929Z,12.53
2019-04-01T21:47:17.528Z,12.23
2019-04-01T21:49:44.993Z,11.43
2019-04-01T21:52:12.656Z,11.93
2019-04-01T21:54:40.074Z,12.57
2019-04-01T21:57:07.549Z,12.00
2019-04-01T21:59:35.217Z,13.13
2019-04-01T22:02:03.574Z,12.80
2019-04-01T22:04:30.964Z,13.90
2019-04-01T22:06:58.656Z,13.63
2019-04-01T22:09:26.163Z,12.20
2019-04-01T22:11:53.545Z,12.67
2019-04-01T22:14:20.928Z,13.43
2019-04-01T22:16:48.586Z,12.33
2019-04-01T22:19:16.305Z,14.40
2019-04-01T22:21:43.681Z,12.57
2019-04-01T22:24:11.116Z,12.80
2019-04-01T22:26:38.690Z,12.67
2019-04-01T22:29:06.121Z,12.10
2019-04-01T22:31:33.521Z,12.37
2019-04-01T22:34:00.856Z,12.87
2019-04-01T22:36:31.286Z,12.10
2019-04-01T22:38:57.514Z,12.17
2019-04-01T22:41:25.189Z,12.90
2019-04-01T22:43:53.370Z,13.27
2019-04-01T22:46:21.576Z,12.63
2019-04-01T22:48:48.902Z,12.37
2019-04-01T22:51:16.234Z,12.60
2019-04-01T22:53:43.711Z,13.40
2019-04-01T22:56:11.125Z,12.83
2019-04-01T22:58:39.101Z,13.17
2019-04-01T23:01:06.407Z,13.30
2019-04-01T23:03:34.075Z,13.07
2019-04-01T23:06:01.714Z,12.97
2019-04-01T23:08:31.047Z,13.00
2019-04-01T23:10:58.498Z,12.30
2019-04-01T23:13:25.905Z,13.03
2019-04-01T23:15:53.207Z,13.23
2019-04-01T23:18:20.901Z,12.57
2019-04-01T23:20:48.208Z,12.93
2019-04-01T23:23:15.861Z,13.00
2019-04-01T23:25:43.484Z,13.60
2019-04-01T23:28:10.817Z,13.60
2019-04-01T23:30:38.211Z,13.67
2019-04-01T23:33:05.905Z,13.20
2019-04-01T23:35:33.998Z,13.47
2019-04-01T23:38:01.570Z,12.87
2019-04-01T23:40:28.905Z,13.80
2019-04-01T23:42:56.466Z,14.67
2019-04-01T23:45:24.966Z,13.30
2019-04-01T23:47:52.528Z,13.97
2019-04-01T23:50:20.213Z,12.40
2019-04-01T23:52:47.841Z,13.20
2019-04-01T23:55:15.435Z,13.20
2019-04-01T23:57:43.096Z,13.40
